sensor_id;sensor_type;location;lat;lon;timestamp;temperature;humidity
21199;DHT22;10757;51.038;3.712;2023-02-26T00:01:20;4.10;99.90
21199;DHT22;10757;51.038;3.712;2023-02-26T00:03:55;4.20;99.90
21199;DHT22;10757;51.038;3.712;2023-02-26T00:06:22;4.10;99.90
21199;DHT22;10757;51.038;3.712;2023-02-26T00:08:49;4.10;99.90
21199;DHT22;10757;51.038;3.712;2023-02-26T00:11:16;4.20;99.90
21199;DHT22;10757;51.038;3.712;2023-02-26T00:13:43;4.70;99.90
21199;DHT22;10757;51.038;3.712;2023-02-26T00:16:25;4.80;99.90
21199;DHT22;10757;51.038;3.712;2023-02-26T00:18:52;4.90;99.90
21199;DHT22;10757;51.038;3.712;2023-02-26T00:21:20;4.70;99.90
21199;DHT22;10757;51.038;3.712;2023-02-26T00:23:46;4.70;99.90
21199;DHT22;10757;51.038;3.712;2023-02-26T00:26:12;4.90;99.90
21199;DHT22;10757;51.038;3.712;2023-02-26T00:28:38;5.00;99.90
21199;DHT22;10757;51.038;3.712;2023-02-26T00:31:04;5.20;99.90
21199;DHT22;10757;51.038;3.712;2023-02-26T00:33:30;5.20;99.90
21199;DHT22;10757;51.038;3.712;2023-02-26T00:36:23;4.80;99.90
21199;DHT22;10757;51.038;3.712;2023-02-26T00:39:06;4.90;99.90
21199;DHT22;10757;51.038;3.712;2023-02-26T00:41:34;5.00;99.90
21199;DHT22;10757;51.038;3.712;2023-02-26T00:44:01;5.20;99.90
21199;DHT22;10757;51.038;3.712;2023-02-26T00:46:41;5.00;99.90
21199;DHT22;10757;51.038;3.712;2023-02-26T00:49:44;4.80;99.90
21199;DHT22;10757;51.038;3.712;2023-02-26T00:52:24;4.50;99.90
21199;DHT22;10757;51.038;3.712;2023-02-26T00:54:52;4.90;99.90
21199;DHT22;10757;51.038;3.712;2023-02-26T00:57:18;4.80;99.90
21199;DHT22;10757;51.038;3.712;2023-02-26T00:59:44;4.90;99.90
21199;DHT22;10757;51.038;3.712;2023-02-26T01:02:09;5.00;99.90
21199;DHT22;10757;51.038;3.712;2023-02-26T01:04:35;5.20;99.90
21199;DHT22;10757;51.038;3.712;2023-02-26T01:07:01;5.30;99.90
21199;DHT22;10757;51.038;3.712;2023-02-26T01:09:32;5.30;99.90
21199;DHT22;10757;51.038;3.712;2023-02-26T01:12:05;5.20;99.90
21199;DHT22;10757;51.038;3.712;2023-02-26T01:14:32;5.30;99.90
21199;DHT22;10757;51.038;3.712;2023-02-26T01:22:37;4.50;99.90
21199;DHT22;10757;51.038;3.712;2023-02-26T01:25:29;4.40;99.90
21199;DHT22;10757;51.038;3.712;2023-02-26T01:27:59;4.50;99.90
21199;DHT22;10757;51.038;3.712;2023-02-26T01:30:25;4.50;99.90
21199;DHT22;10757;51.038;3.712;2023-02-26T01:33:13;4.50;99.90
21199;DHT22;10757;51.038;3.712;2023-02-26T01:35:53;4.50;99.90
21199;DHT22;10757;51.038;3.712;2023-02-26T01:49:21;5.30;99.90
21199;DHT22;10757;51.038;3.712;2023-02-26T01:51:57;5.70;99.90
21199;DHT22;10757;51.038;3.712;2023-02-26T01:54:34;5.90;99.90
21199;DHT22;10757;51.038;3.712;2023-02-26T01:57:09;5.50;99.90
21199;DHT22;10757;51.038;3.712;2023-02-26T01:59:41;5.70;99.90
21199;DHT22;10757;51.038;3.712;2023-02-26T02:02:09;5.80;99.90
21199;DHT22;10757;51.038;3.712;2023-02-26T02:04:37;5.80;99.90
21199;DHT22;10757;51.038;3.712;2023-02-26T02:07:03;5.60;99.90
21199;DHT22;10757;51.038;3.712;2023-02-26T02:09:29;5.70;99.90
21199;DHT22;10757;51.038;3.712;2023-02-26T02:15:24;5.70;99.90
21199;DHT22;10757;51.038;3.712;2023-02-26T02:29:27;5.60;99.90
21199;DHT22;10757;51.038;3.712;2023-02-26T02:34:40;5.80;99.90
21199;DHT22;10757;51.038;3.712;2023-02-26T02:37:16;5.60;99.90
21199;DHT22;10757;51.038;3.712;2023-02-26T02:39:48;5.70;99.90
21199;DHT22;10757;51.038;3.712;2023-02-26T02:45:18;5.70;99.90
21199;DHT22;10757;51.038;3.712;2023-02-26T02:47:47;5.70;99.90
21199;DHT22;10757;51.038;3.712;2023-02-26T02:50:21;5.80;99.90
21199;DHT22;10757;51.038;3.712;2023-02-26T02:53:02;5.70;99.90
21199;DHT22;10757;51.038;3.712;2023-02-26T02:55:38;5.50;99.90
21199;DHT22;10757;51.038;3.712;2023-02-26T02:58:11;5.50;99.90
21199;DHT22;10757;51.038;3.712;2023-02-26T03:00:41;5.50;99.90
21199;DHT22;10757;51.038;3.712;2023-02-26T03:05:36;5.40;99.90
21199;DHT22;10757;51.038;3.712;2023-02-26T03:08:09;5.40;99.90
21199;DHT22;10757;51.038;3.712;2023-02-26T03:10:37;5.50;99.90
21199;DHT22;10757;51.038;3.712;2023-02-26T03:13:03;5.50;99.90
21199;DHT22;10757;51.038;3.712;2023-02-26T03:15:36;5.50;99.90
21199;DHT22;10757;51.038;3.712;2023-02-26T03:24:01;5.20;99.90
21199;DHT22;10757;51.038;3.712;2023-02-26T03:26:26;5.10;99.90
21199;DHT22;10757;51.038;3.712;2023-02-26T03:28:58;5.10;99.90
21199;DHT22;10757;51.038;3.712;2023-02-26T03:31:39;5.00;99.90
21199;DHT22;10757;51.038;3.712;2023-02-26T03:34:14;4.90;99.90
21199;DHT22;10757;51.038;3.712;2023-02-26T03:37:03;4.70;99.90
21199;DHT22;10757;51.038;3.712;2023-02-26T03:39:42;4.60;99.90
21199;DHT22;10757;51.038;3.712;2023-02-26T03:42:28;4.60;99.90
21199;DHT22;10757;51.038;3.712;2023-02-26T03:47:23;4.40;99.90
21199;DHT22;10757;51.038;3.712;2023-02-26T03:49:55;4.70;99.90
21199;DHT22;10757;51.038;3.712;2023-02-26T03:52:27;4.60;99.90
21199;DHT22;10757;51.038;3.712;2023-02-26T03:55:17;4.40;99.90
21199;DHT22;10757;51.038;3.712;2023-02-26T03:57:44;4.30;99.90
21199;DHT22;10757;51.038;3.712;2023-02-26T04:00:11;4.10;99.90
21199;DHT22;10757;51.038;3.712;2023-02-26T04:02:42;4.30;99.90
21199;DHT22;10757;51.038;3.712;2023-02-26T04:05:31;4.30;99.90
21199;DHT22;10757;51.038;3.712;2023-02-26T04:07:58;4.10;99.90
21199;DHT22;10757;51.038;3.712;2023-02-26T04:10:31;4.00;99.90
21199;DHT22;10757;51.038;3.712;2023-02-26T04:13:02;3.90;99.90
21199;DHT22;10757;51.038;3.712;2023-02-26T04:15:28;3.90;99.90
21199;DHT22;10757;51.038;3.712;2023-02-26T04:17:53;3.90;99.90
21199;DHT22;10757;51.038;3.712;2023-02-26T04:20:20;3.70;99.90
21199;DHT22;10757;51.038;3.712;2023-02-26T04:22:46;3.70;99.90
21199;DHT22;10757;51.038;3.712;2023-02-26T04:25:11;3.70;99.90
21199;DHT22;10757;51.038;3.712;2023-02-26T04:27:37;3.70;99.90
21199;DHT22;10757;51.038;3.712;2023-02-26T04:30:03;3.60;99.90
21199;DHT22;10757;51.038;3.712;2023-02-26T04:32:29;3.80;99.90
21199;DHT22;10757;51.038;3.712;2023-02-26T04:34:54;3.70;99.90
21199;DHT22;10757;51.038;3.712;2023-02-26T04:37:20;3.70;99.90
21199;DHT22;10757;51.038;3.712;2023-02-26T04:39:46;3.70;99.90
21199;DHT22;10757;51.038;3.712;2023-02-26T04:42:11;3.70;99.90
21199;DHT22;10757;51.038;3.712;2023-02-26T04:44:37;3.70;99.90
21199;DHT22;10757;51.038;3.712;2023-02-26T04:47:03;3.60;99.90
21199;DHT22;10757;51.038;3.712;2023-02-26T04:49:28;3.60;99.90
21199;DHT22;10757;51.038;3.712;2023-02-26T04:51:54;3.50;99.90
21199;DHT22;10757;51.038;3.712;2023-02-26T04:54:20;3.40;99.90
21199;DHT22;10757;51.038;3.712;2023-02-26T04:56:45;3.40;99.90
21199;DHT22;10757;51.038;3.712;2023-02-26T04:59:11;3.30;99.90
21199;DHT22;10757;51.038;3.712;2023-02-26T05:01:37;3.60;99.90
21199;DHT22;10757;51.038;3.712;2023-02-26T05:04:03;3.50;99.90
21199;DHT22;10757;51.038;3.712;2023-02-26T05:06:28;3.50;99.90
21199;DHT22;10757;51.038;3.712;2023-02-26T05:08:54;3.70;99.90
21199;DHT22;10757;51.038;3.712;2023-02-26T05:11:19;3.60;99.90
21199;DHT22;10757;51.038;3.712;2023-02-26T05:13:45;3.30;99.90
21199;DHT22;10757;51.038;3.712;2023-02-26T05:16:11;3.30;99.90
21199;DHT22;10757;51.038;3.712;2023-02-26T05:18:36;3.10;99.90
21199;DHT22;10757;51.038;3.712;2023-02-26T05:21:03;3.10;99.90
21199;DHT22;10757;51.038;3.712;2023-02-26T05:23:28;3.00;99.90
21199;DHT22;10757;51.038;3.712;2023-02-26T05:25:55;3.10;99.90
21199;DHT22;10757;51.038;3.712;2023-02-26T05:28:21;3.00;99.90
21199;DHT22;10757;51.038;3.712;2023-02-26T05:30:47;3.20;99.90
21199;DHT22;10757;51.038;3.712;2023-02-26T05:33:14;3.20;99.90
21199;DHT22;10757;51.038;3.712;2023-02-26T05:35:39;3.10;99.90
21199;DHT22;10757;51.038;3.712;2023-02-26T05:38:05;3.00;99.90
21199;DHT22;10757;51.038;3.712;2023-02-26T05:40:31;3.00;99.90
21199;DHT22;10757;51.038;3.712;2023-02-26T05:42:56;3.00;99.90
21199;DHT22;10757;51.038;3.712;2023-02-26T05:45:22;3.00;99.90
21199;DHT22;10757;51.038;3.712;2023-02-26T05:47:48;2.90;99.90
21199;DHT22;10757;51.038;3.712;2023-02-26T05:50:14;2.90;99.90
21199;DHT22;10757;51.038;3.712;2023-02-26T05:52:39;2.80;99.90
21199;DHT22;10757;51.038;3.712;2023-02-26T05:55:06;2.80;99.90
21199;DHT22;10757;51.038;3.712;2023-02-26T05:57:31;2.80;99.90
21199;DHT22;10757;51.038;3.712;2023-02-26T05:59:57;2.80;99.90
21199;DHT22;10757;51.038;3.712;2023-02-26T06:02:23;3.10;99.90
21199;DHT22;10757;51.038;3.712;2023-02-26T06:04:48;3.20;99.90
21199;DHT22;10757;51.038;3.712;2023-02-26T06:07:14;3.10;99.90
21199;DHT22;10757;51.038;3.712;2023-02-26T06:09:40;3.00;99.90
21199;DHT22;10757;51.038;3.712;2023-02-26T06:12:06;2.80;99.90
21199;DHT22;10757;51.038;3.712;2023-02-26T06:14:32;2.90;99.90
21199;DHT22;10757;51.038;3.712;2023-02-26T06:16:58;2.90;99.90
21199;DHT22;10757;51.038;3.712;2023-02-26T06:19:23;2.80;99.90
21199;DHT22;10757;51.038;3.712;2023-02-26T06:21:49;2.80;99.90
21199;DHT22;10757;51.038;3.712;2023-02-26T06:24:15;2.80;99.90
21199;DHT22;10757;51.038;3.712;2023-02-26T06:26:41;2.70;99.90
21199;DHT22;10757;51.038;3.712;2023-02-26T06:29:07;2.60;99.90
21199;DHT22;10757;51.038;3.712;2023-02-26T06:31:33;2.60;99.90
21199;DHT22;10757;51.038;3.712;2023-02-26T06:33:58;2.70;99.90
21199;DHT22;10757;51.038;3.712;2023-02-26T06:36:24;2.70;99.90
21199;DHT22;10757;51.038;3.712;2023-02-26T06:38:50;2.70;99.90
21199;DHT22;10757;51.038;3.712;2023-02-26T06:41:15;2.60;99.90
21199;DHT22;10757;51.038;3.712;2023-02-26T06:43:41;2.60;99.90
21199;DHT22;10757;51.038;3.712;2023-02-26T06:46:07;2.60;99.90
21199;DHT22;10757;51.038;3.712;2023-02-26T06:48:32;2.50;99.90
21199;DHT22;10757;51.038;3.712;2023-02-26T06:50:58;2.60;99.90
21199;DHT22;10757;51.038;3.712;2023-02-26T06:53:24;2.50;99.90
21199;DHT22;10757;51.038;3.712;2023-02-26T06:55:51;2.50;99.90
21199;DHT22;10757;51.038;3.712;2023-02-26T06:58:18;2.50;99.90
21199;DHT22;10757;51.038;3.712;2023-02-26T07:00:44;2.50;99.90
21199;DHT22;10757;51.038;3.712;2023-02-26T07:03:12;2.50;99.90
21199;DHT22;10757;51.038;3.712;2023-02-26T07:05:39;2.40;99.90
21199;DHT22;10757;51.038;3.712;2023-02-26T07:08:06;2.50;99.90
21199;DHT22;10757;51.038;3.712;2023-02-26T07:10:33;2.50;99.90
21199;DHT22;10757;51.038;3.712;2023-02-26T07:12:59;2.60;99.90
21199;DHT22;10757;51.038;3.712;2023-02-26T07:15:25;2.70;99.90
21199;DHT22;10757;51.038;3.712;2023-02-26T07:17:51;2.60;99.90
21199;DHT22;10757;51.038;3.712;2023-02-26T07:20:17;2.80;99.90
21199;DHT22;10757;51.038;3.712;2023-02-26T07:22:43;2.90;99.90
21199;DHT22;10757;51.038;3.712;2023-02-26T07:25:10;2.90;99.90
21199;DHT22;10757;51.038;3.712;2023-02-26T07:27:36;3.00;99.90
21199;DHT22;10757;51.038;3.712;2023-02-26T07:30:02;2.90;99.90
21199;DHT22;10757;51.038;3.712;2023-02-26T07:32:28;2.90;99.90
21199;DHT22;10757;51.038;3.712;2023-02-26T07:34:54;2.90;99.90
21199;DHT22;10757;51.038;3.712;2023-02-26T07:37:20;3.00;99.90
21199;DHT22;10757;51.038;3.712;2023-02-26T07:39:45;3.10;99.90
21199;DHT22;10757;51.038;3.712;2023-02-26T07:42:11;3.00;99.90
21199;DHT22;10757;51.038;3.712;2023-02-26T07:44:37;2.90;99.90
21199;DHT22;10757;51.038;3.712;2023-02-26T07:47:03;2.90;99.90
21199;DHT22;10757;51.038;3.712;2023-02-26T07:49:28;3.00;99.90
21199;DHT22;10757;51.038;3.712;2023-02-26T07:51:54;3.50;99.90
21199;DHT22;10757;51.038;3.712;2023-02-26T07:54:20;3.60;99.90
21199;DHT22;10757;51.038;3.712;2023-02-26T07:56:46;3.70;99.90
21199;DHT22;10757;51.038;3.712;2023-02-26T07:59:11;3.60;99.90
21199;DHT22;10757;51.038;3.712;2023-02-26T08:01:37;3.50;99.90
21199;DHT22;10757;51.038;3.712;2023-02-26T08:04:03;3.40;99.90
21199;DHT22;10757;51.038;3.712;2023-02-26T08:06:29;3.30;99.90
21199;DHT22;10757;51.038;3.712;2023-02-26T08:08:55;3.20;99.90
21199;DHT22;10757;51.038;3.712;2023-02-26T08:11:21;3.40;99.90
21199;DHT22;10757;51.038;3.712;2023-02-26T08:13:46;3.50;99.90
21199;DHT22;10757;51.038;3.712;2023-02-26T08:16:12;3.60;99.90
21199;DHT22;10757;51.038;3.712;2023-02-26T08:18:38;3.50;99.90
21199;DHT22;10757;51.038;3.712;2023-02-26T08:21:04;3.50;99.90
21199;DHT22;10757;51.038;3.712;2023-02-26T08:23:29;3.60;99.90
21199;DHT22;10757;51.038;3.712;2023-02-26T08:26:09;3.70;99.90
21199;DHT22;10757;51.038;3.712;2023-02-26T08:28:35;3.80;99.90
21199;DHT22;10757;51.038;3.712;2023-02-26T08:31:02;4.00;99.90
21199;DHT22;10757;51.038;3.712;2023-02-26T08:33:28;4.00;99.90
21199;DHT22;10757;51.038;3.712;2023-02-26T08:35:54;3.90;99.90
21199;DHT22;10757;51.038;3.712;2023-02-26T08:38:22;3.80;99.90
21199;DHT22;10757;51.038;3.712;2023-02-26T08:40:50;3.90;99.90
21199;DHT22;10757;51.038;3.712;2023-02-26T08:43:18;3.80;99.90
21199;DHT22;10757;51.038;3.712;2023-02-26T08:45:44;3.90;99.90
21199;DHT22;10757;51.038;3.712;2023-02-26T08:48:10;3.90;99.90
21199;DHT22;10757;51.038;3.712;2023-02-26T08:50:36;4.00;99.90
21199;DHT22;10757;51.038;3.712;2023-02-26T08:53:02;4.00;99.90
21199;DHT22;10757;51.038;3.712;2023-02-26T08:55:27;3.90;99.90
21199;DHT22;10757;51.038;3.712;2023-02-26T08:57:53;3.90;99.90
21199;DHT22;10757;51.038;3.712;2023-02-26T09:00:19;4.00;99.90
21199;DHT22;10757;51.038;3.712;2023-02-26T09:02:45;4.10;99.90
21199;DHT22;10757;51.038;3.712;2023-02-26T09:05:12;4.00;99.90
21199;DHT22;10757;51.038;3.712;2023-02-26T09:07:39;4.00;99.90
21199;DHT22;10757;51.038;3.712;2023-02-26T09:10:06;4.00;99.90
21199;DHT22;10757;51.038;3.712;2023-02-26T09:12:33;4.10;99.90
21199;DHT22;10757;51.038;3.712;2023-02-26T09:15:05;4.00;99.90
21199;DHT22;10757;51.038;3.712;2023-02-26T09:17:33;4.00;99.90
21199;DHT22;10757;51.038;3.712;2023-02-26T09:19:58;4.00;99.90
21199;DHT22;10757;51.038;3.712;2023-02-26T09:22:24;4.20;99.90
21199;DHT22;10757;51.038;3.712;2023-02-26T09:24:50;4.40;99.90
21199;DHT22;10757;51.038;3.712;2023-02-26T09:27:16;4.40;99.90
21199;DHT22;10757;51.038;3.712;2023-02-26T09:29:42;4.30;99.90
21199;DHT22;10757;51.038;3.712;2023-02-26T09:32:09;4.40;99.90
21199;DHT22;10757;51.038;3.712;2023-02-26T09:34:35;4.40;99.90
21199;DHT22;10757;51.038;3.712;2023-02-26T09:37:02;4.40;99.90
21199;DHT22;10757;51.038;3.712;2023-02-26T09:39:28;4.40;99.90
21199;DHT22;10757;51.038;3.712;2023-02-26T09:41:57;4.50;99.90
21199;DHT22;10757;51.038;3.712;2023-02-26T09:44:27;4.60;99.90
21199;DHT22;10757;51.038;3.712;2023-02-26T09:47:31;4.60;99.90
21199;DHT22;10757;51.038;3.712;2023-02-26T09:50:15;4.50;99.90
21199;DHT22;10757;51.038;3.712;2023-02-26T09:53:06;4.50;99.90
21199;DHT22;10757;51.038;3.712;2023-02-26T09:55:42;4.60;99.90
21199;DHT22;10757;51.038;3.712;2023-02-26T09:58:25;4.70;99.90
21199;DHT22;10757;51.038;3.712;2023-02-26T10:01:09;4.60;99.90
21199;DHT22;10757;51.038;3.712;2023-02-26T10:06:32;4.70;99.90
21199;DHT22;10757;51.038;3.712;2023-02-26T10:14:26;5.30;99.90
21199;DHT22;10757;51.038;3.712;2023-02-26T10:16:57;5.20;99.90
21199;DHT22;10757;51.038;3.712;2023-02-26T10:19:29;5.10;99.90
21199;DHT22;10757;51.038;3.712;2023-02-26T10:24:53;5.00;99.90
21199;DHT22;10757;51.038;3.712;2023-02-26T10:27:41;4.90;99.90
21199;DHT22;10757;51.038;3.712;2023-02-26T10:30:27;4.90;99.90
21199;DHT22;10757;51.038;3.712;2023-02-26T10:32:58;4.90;99.90
21199;DHT22;10757;51.038;3.712;2023-02-26T10:35:28;5.00;99.90
21199;DHT22;10757;51.038;3.712;2023-02-26T10:37:58;5.10;99.90
21199;DHT22;10757;51.038;3.712;2023-02-26T10:40:54;5.10;99.90
21199;DHT22;10757;51.038;3.712;2023-02-26T10:43:22;5.00;99.90
21199;DHT22;10757;51.038;3.712;2023-02-26T10:51:16;5.50;99.90
21199;DHT22;10757;51.038;3.712;2023-02-26T10:53:54;5.30;99.90
21199;DHT22;10757;51.038;3.712;2023-02-26T10:56:28;5.10;99.90
21199;DHT22;10757;51.038;3.712;2023-02-26T10:58:54;5.10;99.90
21199;DHT22;10757;51.038;3.712;2023-02-26T11:01:23;5.10;99.90
21199;DHT22;10757;51.038;3.712;2023-02-26T11:04:04;5.20;99.90
21199;DHT22;10757;51.038;3.712;2023-02-26T11:06:41;5.30;99.90
21199;DHT22;10757;51.038;3.712;2023-02-26T11:09:31;5.20;99.90
21199;DHT22;10757;51.038;3.712;2023-02-26T11:12:05;5.40;99.90
21199;DHT22;10757;51.038;3.712;2023-02-26T11:14:32;5.50;99.90
21199;DHT22;10757;51.038;3.712;2023-02-26T11:17:01;5.40;99.90
21199;DHT22;10757;51.038;3.712;2023-02-26T11:19:46;5.40;99.90
21199;DHT22;10757;51.038;3.712;2023-02-26T11:22:14;5.50;99.90
21199;DHT22;10757;51.038;3.712;2023-02-26T11:24:44;5.50;99.90
21199;DHT22;10757;51.038;3.712;2023-02-26T11:27:29;5.50;99.90
21199;DHT22;10757;51.038;3.712;2023-02-26T11:29:58;5.50;99.90
21199;DHT22;10757;51.038;3.712;2023-02-26T11:32:33;5.50;99.90
21199;DHT22;10757;51.038;3.712;2023-02-26T11:34:59;5.70;99.90
21199;DHT22;10757;51.038;3.712;2023-02-26T11:37:32;5.80;99.90
21199;DHT22;10757;51.038;3.712;2023-02-26T11:40:16;5.90;99.90
21199;DHT22;10757;51.038;3.712;2023-02-26T11:42:58;6.00;99.90
21199;DHT22;10757;51.038;3.712;2023-02-26T11:45:25;5.90;99.90
21199;DHT22;10757;51.038;3.712;2023-02-26T11:48:05;5.70;99.90
21199;DHT22;10757;51.038;3.712;2023-02-26T11:50:39;5.80;99.90
21199;DHT22;10757;51.038;3.712;2023-02-26T11:53:18;5.80;99.90
21199;DHT22;10757;51.038;3.712;2023-02-26T11:55:51;5.80;99.90
21199;DHT22;10757;51.038;3.712;2023-02-26T11:58:22;6.10;99.90
21199;DHT22;10757;51.038;3.712;2023-02-26T12:00:51;6.20;99.90
21199;DHT22;10757;51.038;3.712;2023-02-26T12:03:27;6.30;99.90
21199;DHT22;10757;51.038;3.712;2023-02-26T12:05:53;6.20;99.90
21199;DHT22;10757;51.038;3.712;2023-02-26T12:08:35;6.30;99.90
21199;DHT22;10757;51.038;3.712;2023-02-26T12:11:29;6.50;99.90
21199;DHT22;10757;51.038;3.712;2023-02-26T12:19:56;6.10;99.90
21199;DHT22;10757;51.038;3.712;2023-02-26T12:27:30;5.90;99.90
21199;DHT22;10757;51.038;3.712;2023-02-26T12:30:09;6.00;99.90
21199;DHT22;10757;51.038;3.712;2023-02-26T12:33:05;6.00;99.90
21199;DHT22;10757;51.038;3.712;2023-02-26T12:38:44;5.80;99.90
21199;DHT22;10757;51.038;3.712;2023-02-26T12:41:43;5.80;99.90
21199;DHT22;10757;51.038;3.712;2023-02-26T12:45:17;5.80;99.90
21199;DHT22;10757;51.038;3.712;2023-02-26T12:48:13;5.80;99.90
21199;DHT22;10757;51.038;3.712;2023-02-26T12:50:50;5.80;99.90
21199;DHT22;10757;51.038;3.712;2023-02-26T12:58:46;6.20;99.90
21199;DHT22;10757;51.038;3.712;2023-02-26T13:04:06;6.60;99.90
21199;DHT22;10757;51.038;3.712;2023-02-26T13:12:40;6.30;99.90
21199;DHT22;10757;51.038;3.712;2023-02-26T13:20:28;6.20;99.90
21199;DHT22;10757;51.038;3.712;2023-02-26T13:23:18;6.20;99.90
21199;DHT22;10757;51.038;3.712;2023-02-26T13:25:49;6.10;99.90
21199;DHT22;10757;51.038;3.712;2023-02-26T13:28:37;6.10;99.90
21199;DHT22;10757;51.038;3.712;2023-02-26T13:31:51;6.30;99.90
21199;DHT22;10757;51.038;3.712;2023-02-26T13:36:45;6.60;99.90
21199;DHT22;10757;51.038;3.712;2023-02-26T13:44:53;6.70;99.90
21199;DHT22;10757;51.038;3.712;2023-02-26T13:47:36;6.70;99.90
21199;DHT22;10757;51.038;3.712;2023-02-26T13:53:00;6.90;99.90
21199;DHT22;10757;51.038;3.712;2023-02-26T14:01:15;6.80;99.90
21199;DHT22;10757;51.038;3.712;2023-02-26T14:03:47;6.80;99.90
21199;DHT22;10757;51.038;3.712;2023-02-26T14:09:29;7.00;99.90
21199;DHT22;10757;51.038;3.712;2023-02-26T14:25:54;7.20;99.90
21199;DHT22;10757;51.038;3.712;2023-02-26T14:34:11;7.20;99.90
21199;DHT22;10757;51.038;3.712;2023-02-26T14:36:43;7.20;99.90
21199;DHT22;10757;51.038;3.712;2023-02-26T14:39:35;7.20;99.90
21199;DHT22;10757;51.038;3.712;2023-02-26T14:44:56;7.20;99.90
21199;DHT22;10757;51.038;3.712;2023-02-26T14:47:25;7.00;99.90
21199;DHT22;10757;51.038;3.712;2023-02-26T14:49:51;6.90;99.90
21199;DHT22;10757;51.038;3.712;2023-02-26T14:52:41;7.00;99.90
21199;DHT22;10757;51.038;3.712;2023-02-26T15:00:41;6.80;99.90
21199;DHT22;10757;51.038;3.712;2023-02-26T15:09:37;7.00;99.90
21199;DHT22;10757;51.038;3.712;2023-02-26T15:12:37;7.10;99.90
21199;DHT22;10757;51.038;3.712;2023-02-26T15:15:28;7.20;99.90
21199;DHT22;10757;51.038;3.712;2023-02-26T15:18:01;7.40;99.90
21199;DHT22;10757;51.038;3.712;2023-02-26T15:21:00;7.60;99.90
21199;DHT22;10757;51.038;3.712;2023-02-26T15:23:35;7.40;99.90
21199;DHT22;10757;51.038;3.712;2023-02-26T15:26:03;7.50;99.90
21199;DHT22;10757;51.038;3.712;2023-02-26T15:28:36;7.30;99.90
21199;DHT22;10757;51.038;3.712;2023-02-26T15:31:04;7.40;99.90
21199;DHT22;10757;51.038;3.712;2023-02-26T15:33:32;7.20;99.90
21199;DHT22;10757;51.038;3.712;2023-02-26T15:36:07;7.20;99.90
21199;DHT22;10757;51.038;3.712;2023-02-26T15:38:52;7.20;99.90
21199;DHT22;10757;51.038;3.712;2023-02-26T15:41:19;7.00;99.90
21199;DHT22;10757;51.038;3.712;2023-02-26T15:43:50;6.70;99.90
21199;DHT22;10757;51.038;3.712;2023-02-26T15:46:17;6.80;99.90
21199;DHT22;10757;51.038;3.712;2023-02-26T15:48:45;6.70;99.90
21199;DHT22;10757;51.038;3.712;2023-02-26T15:51:13;6.60;99.90
21199;DHT22;10757;51.038;3.712;2023-02-26T15:53:47;6.50;99.90
21199;DHT22;10757;51.038;3.712;2023-02-26T15:56:20;6.80;99.90
21199;DHT22;10757;51.038;3.712;2023-02-26T15:59:02;6.80;99.90
21199;DHT22;10757;51.038;3.712;2023-02-26T16:01:30;6.90;99.90
21199;DHT22;10757;51.038;3.712;2023-02-26T16:04:02;6.90;99.90
21199;DHT22;10757;51.038;3.712;2023-02-26T16:07:01;6.80;99.90
21199;DHT22;10757;51.038;3.712;2023-02-26T16:09:27;6.80;99.90
21199;DHT22;10757;51.038;3.712;2023-02-26T16:11:57;6.70;99.90
21199;DHT22;10757;51.038;3.712;2023-02-26T16:14:30;6.90;99.90
21199;DHT22;10757;51.038;3.712;2023-02-26T16:16:58;7.00;99.90
21199;DHT22;10757;51.038;3.712;2023-02-26T16:19:45;6.90;99.90
21199;DHT22;10757;51.038;3.712;2023-02-26T16:22:37;6.90;99.90
21199;DHT22;10757;51.038;3.712;2023-02-26T16:30:38;6.50;99.90
21199;DHT22;10757;51.038;3.712;2023-02-26T16:33:14;6.40;99.90
21199;DHT22;10757;51.038;3.712;2023-02-26T16:35:53;6.50;99.90
21199;DHT22;10757;51.038;3.712;2023-02-26T16:38:24;6.60;99.90
21199;DHT22;10757;51.038;3.712;2023-02-26T16:41:05;6.60;99.90
21199;DHT22;10757;51.038;3.712;2023-02-26T16:43:59;6.50;99.90
21199;DHT22;10757;51.038;3.712;2023-02-26T16:46:38;6.70;99.90
21199;DHT22;10757;51.038;3.712;2023-02-26T16:49:25;6.60;99.90
21199;DHT22;10757;51.038;3.712;2023-02-26T16:51:52;6.60;99.90
21199;DHT22;10757;51.038;3.712;2023-02-26T16:54:24;6.50;99.90
21199;DHT22;10757;51.038;3.712;2023-02-26T16:56:59;6.40;99.90
21199;DHT22;10757;51.038;3.712;2023-02-26T16:59:29;6.40;99.90
21199;DHT22;10757;51.038;3.712;2023-02-26T17:01:57;6.40;99.90
21199;DHT22;10757;51.038;3.712;2023-02-26T17:04:28;6.40;99.90
21199;DHT22;10757;51.038;3.712;2023-02-26T17:06:57;6.30;99.90
21199;DHT22;10757;51.038;3.712;2023-02-26T17:09:39;6.20;99.90
21199;DHT22;10757;51.038;3.712;2023-02-26T17:13:00;6.30;99.90
21199;DHT22;10757;51.038;3.712;2023-02-26T17:15:00;6.20;99.90
21199;DHT22;10757;51.038;3.712;2023-02-26T17:17:26;6.40;99.90
21199;DHT22;10757;51.038;3.712;2023-02-26T17:19:52;6.40;99.90
21199;DHT22;10757;51.038;3.712;2023-02-26T17:22:26;6.40;99.90
21199;DHT22;10757;51.038;3.712;2023-02-26T17:24:52;6.40;99.90
21199;DHT22;10757;51.038;3.712;2023-02-26T17:27:33;6.10;99.90
21199;DHT22;10757;51.038;3.712;2023-02-26T17:30:03;6.20;99.90
21199;DHT22;10757;51.038;3.712;2023-02-26T17:32:29;6.20;99.90
21199;DHT22;10757;51.038;3.712;2023-02-26T17:34:56;6.00;99.90
21199;DHT22;10757;51.038;3.712;2023-02-26T17:37:28;6.10;99.90
21199;DHT22;10757;51.038;3.712;2023-02-26T17:39:55;6.10;99.90
21199;DHT22;10757;51.038;3.712;2023-02-26T17:42:22;6.00;99.90
21199;DHT22;10757;51.038;3.712;2023-02-26T17:44:48;5.90;99.90
21199;DHT22;10757;51.038;3.712;2023-02-26T17:47:19;5.80;99.90
21199;DHT22;10757;51.038;3.712;2023-02-26T17:49:45;6.00;99.90
21199;DHT22;10757;51.038;3.712;2023-02-26T17:52:11;6.00;99.90
21199;DHT22;10757;51.038;3.712;2023-02-26T17:54:37;6.00;99.90
21199;DHT22;10757;51.038;3.712;2023-02-26T17:57:08;6.00;99.90
21199;DHT22;10757;51.038;3.712;2023-02-26T17:59:36;5.90;99.90
21199;DHT22;10757;51.038;3.712;2023-02-26T18:02:19;5.70;99.90
21199;DHT22;10757;51.038;3.712;2023-02-26T18:04:45;5.50;99.90
21199;DHT22;10757;51.038;3.712;2023-02-26T18:07:14;5.50;99.90
21199;DHT22;10757;51.038;3.712;2023-02-26T18:09:42;5.60;99.90
21199;DHT22;10757;51.038;3.712;2023-02-26T18:12:15;5.60;99.90
21199;DHT22;10757;51.038;3.712;2023-02-26T18:14:41;5.60;99.90
21199;DHT22;10757;51.038;3.712;2023-02-26T18:17:12;5.60;99.90
21199;DHT22;10757;51.038;3.712;2023-02-26T18:19:40;5.50;99.90
21199;DHT22;10757;51.038;3.712;2023-02-26T18:22:17;5.60;99.90
21199;DHT22;10757;51.038;3.712;2023-02-26T18:24:44;5.50;99.90
21199;DHT22;10757;51.038;3.712;2023-02-26T18:27:16;5.40;99.90
21199;DHT22;10757;51.038;3.712;2023-02-26T18:29:42;5.40;99.90
21199;DHT22;10757;51.038;3.712;2023-02-26T18:32:17;5.40;99.90
21199;DHT22;10757;51.038;3.712;2023-02-26T18:34:43;5.40;99.90
21199;DHT22;10757;51.038;3.712;2023-02-26T18:37:14;5.40;99.90
21199;DHT22;10757;51.038;3.712;2023-02-26T18:39:40;5.50;99.90
21199;DHT22;10757;51.038;3.712;2023-02-26T18:42:09;5.50;99.90
21199;DHT22;10757;51.038;3.712;2023-02-26T18:44:42;5.50;99.90
21199;DHT22;10757;51.038;3.712;2023-02-26T18:47:08;5.70;99.90
21199;DHT22;10757;51.038;3.712;2023-02-26T18:49:34;5.50;99.90